sensor_id;sensor_type;location;lat;lon;timestamp;temperature;humidity
2873;DHT22;1444;49.166;7.312;2022-11-23T00:00:07;7.40;99.90
2873;DHT22;1444;49.166;7.312;2022-11-23T00:02:35;7.40;99.90
2873;DHT22;1444;49.166;7.312;2022-11-23T00:05:02;7.50;99.90
2873;DHT22;1444;49.166;7.312;2022-11-23T00:07:29;7.40;99.90
2873;DHT22;1444;49.166;7.312;2022-11-23T00:09:55;6.30;99.90
2873;DHT22;1444;49.166;7.312;2022-11-23T00:12:22;7.40;99.90
2873;DHT22;1444;49.166;7.312;2022-11-23T00:14:49;7.40;99.90
2873;DHT22;1444;49.166;7.312;2022-11-23T00:17:15;7.50;99.90
2873;DHT22;1444;49.166;7.312;2022-11-23T00:19:43;7.50;99.90
2873;DHT22;1444;49.166;7.312;2022-11-23T00:22:10;7.50;99.90
2873;DHT22;1444;49.166;7.312;2022-11-23T00:24:37;7.50;99.90
2873;DHT22;1444;49.166;7.312;2022-11-23T00:27:04;7.50;99.90
2873;DHT22;1444;49.166;7.312;2022-11-23T00:29:30;7.50;99.90
2873;DHT22;1444;49.166;7.312;2022-11-23T00:31:57;7.40;99.90
2873;DHT22;1444;49.166;7.312;2022-11-23T00:34:24;7.50;99.90
2873;DHT22;1444;49.166;7.312;2022-11-23T00:36:52;7.50;99.90
2873;DHT22;1444;49.166;7.312;2022-11-23T00:39:18;7.50;99.90
2873;DHT22;1444;49.166;7.312;2022-11-23T00:41:45;7.50;99.90
2873;DHT22;1444;49.166;7.312;2022-11-23T00:44:12;7.50;99.90
2873;DHT22;1444;49.166;7.312;2022-11-23T00:49:06;7.70;99.90
2873;DHT22;1444;49.166;7.312;2022-11-23T00:51:34;7.60;99.90
2873;DHT22;1444;49.166;7.312;2022-11-23T00:54:04;7.70;99.90
2873;DHT22;1444;49.166;7.312;2022-11-23T00:56:32;7.70;99.90
2873;DHT22;1444;49.166;7.312;2022-11-23T00:59:00;7.70;99.90
2873;DHT22;1444;49.166;7.312;2022-11-23T01:01:29;7.80;99.90
2873;DHT22;1444;49.166;7.312;2022-11-23T01:03:59;7.80;99.90
2873;DHT22;1444;49.166;7.312;2022-11-23T01:06:27;7.90;99.90
2873;DHT22;1444;49.166;7.312;2022-11-23T01:08:55;7.90;99.90
2873;DHT22;1444;49.166;7.312;2022-11-23T01:11:25;7.90;99.90
2873;DHT22;1444;49.166;7.312;2022-11-23T01:13:53;7.90;99.90
2873;DHT22;1444;49.166;7.312;2022-11-23T01:16:21;7.90;99.90
2873;DHT22;1444;49.166;7.312;2022-11-23T01:18:51;7.90;99.90
2873;DHT22;1444;49.166;7.312;2022-11-23T01:21:18;7.90;99.90
2873;DHT22;1444;49.166;7.312;2022-11-23T01:23:45;7.90;99.90
2873;DHT22;1444;49.166;7.312;2022-11-23T01:26:12;7.90;99.90
2873;DHT22;1444;49.166;7.312;2022-11-23T01:28:40;7.90;99.90
2873;DHT22;1444;49.166;7.312;2022-11-23T01:31:09;8.00;99.90
2873;DHT22;1444;49.166;7.312;2022-11-23T01:33:37;8.00;99.90
2873;DHT22;1444;49.166;7.312;2022-11-23T01:36:09;8.00;99.90
2873;DHT22;1444;49.166;7.312;2022-11-23T01:38:36;8.00;99.90
2873;DHT22;1444;49.166;7.312;2022-11-23T01:41:03;8.00;99.90
2873;DHT22;1444;49.166;7.312;2022-11-23T01:43:30;8.10;99.90
2873;DHT22;1444;49.166;7.312;2022-11-23T01:45:59;8.10;99.90
2873;DHT22;1444;49.166;7.312;2022-11-23T01:48:28;8.10;99.90
2873;DHT22;1444;49.166;7.312;2022-11-23T01:50:58;8.10;99.90
2873;DHT22;1444;49.166;7.312;2022-11-23T01:53:27;8.00;99.90
2873;DHT22;1444;49.166;7.312;2022-11-23T01:55:59;8.00;99.90
2873;DHT22;1444;49.166;7.312;2022-11-23T01:58:27;8.00;99.90
2873;DHT22;1444;49.166;7.312;2022-11-23T02:00:54;8.10;99.90
2873;DHT22;1444;49.166;7.312;2022-11-23T02:03:23;8.00;99.90
2873;DHT22;1444;49.166;7.312;2022-11-23T02:05:52;8.00;99.90
2873;DHT22;1444;49.166;7.312;2022-11-23T02:08:24;8.10;99.90
2873;DHT22;1444;49.166;7.312;2022-11-23T02:10:51;8.00;99.90
2873;DHT22;1444;49.166;7.312;2022-11-23T02:13:18;8.00;99.90
2873;DHT22;1444;49.166;7.312;2022-11-23T02:15:45;8.10;99.90
2873;DHT22;1444;49.166;7.312;2022-11-23T02:18:15;8.10;99.90
2873;DHT22;1444;49.166;7.312;2022-11-23T02:20:44;8.10;99.90
2873;DHT22;1444;49.166;7.312;2022-11-23T02:23:19;8.10;99.90
2873;DHT22;1444;49.166;7.312;2022-11-23T02:25:57;8.10;99.90
2873;DHT22;1444;49.166;7.312;2022-11-23T02:28:28;8.10;99.90
2873;DHT22;1444;49.166;7.312;2022-11-23T02:30:56;8.10;99.90
2873;DHT22;1444;49.166;7.312;2022-11-23T02:33:23;8.10;99.90
2873;DHT22;1444;49.166;7.312;2022-11-23T02:35:52;8.10;99.90
2873;DHT22;1444;49.166;7.312;2022-11-23T02:38:20;8.10;99.90
2873;DHT22;1444;49.166;7.312;2022-11-23T02:40:47;8.10;99.90
2873;DHT22;1444;49.166;7.312;2022-11-23T02:43:15;8.10;99.90
2873;DHT22;1444;49.166;7.312;2022-11-23T02:45:45;8.10;99.90
2873;DHT22;1444;49.166;7.312;2022-11-23T02:48:13;8.10;99.90
2873;DHT22;1444;49.166;7.312;2022-11-23T02:50:40;8.20;99.90
2873;DHT22;1444;49.166;7.312;2022-11-23T02:53:07;8.30;99.90
2873;DHT22;1444;49.166;7.312;2022-11-23T02:55:34;8.20;99.90
2873;DHT22;1444;49.166;7.312;2022-11-23T02:58:01;8.10;99.90
2873;DHT22;1444;49.166;7.312;2022-11-23T03:00:29;8.20;99.90
2873;DHT22;1444;49.166;7.312;2022-11-23T03:02:57;8.20;99.90
2873;DHT22;1444;49.166;7.312;2022-11-23T03:05:25;8.20;99.90
2873;DHT22;1444;49.166;7.312;2022-11-23T03:07:52;8.20;99.90
2873;DHT22;1444;49.166;7.312;2022-11-23T03:10:19;8.10;99.90
2873;DHT22;1444;49.166;7.312;2022-11-23T03:12:46;8.10;99.90
2873;DHT22;1444;49.166;7.312;2022-11-23T03:15:13;8.20;99.90
2873;DHT22;1444;49.166;7.312;2022-11-23T03:17:41;8.10;99.90
2873;DHT22;1444;49.166;7.312;2022-11-23T03:20:09;8.20;99.90
2873;DHT22;1444;49.166;7.312;2022-11-23T03:22:35;8.20;99.90
2873;DHT22;1444;49.166;7.312;2022-11-23T03:25:03;8.20;99.90
2873;DHT22;1444;49.166;7.312;2022-11-23T03:27:30;8.10;99.90
2873;DHT22;1444;49.166;7.312;2022-11-23T03:29:58;8.10;99.90
2873;DHT22;1444;49.166;7.312;2022-11-23T03:32:24;8.10;99.90
2873;DHT22;1444;49.166;7.312;2022-11-23T03:34:53;8.10;99.90
2873;DHT22;1444;49.166;7.312;2022-11-23T03:37:19;8.10;99.90
2873;DHT22;1444;49.166;7.312;2022-11-23T03:39:46;8.10;99.90
2873;DHT22;1444;49.166;7.312;2022-11-23T03:42:13;8.10;99.90
2873;DHT22;1444;49.166;7.312;2022-11-23T03:44:39;8.10;99.90
2873;DHT22;1444;49.166;7.312;2022-11-23T03:47:06;8.00;99.90
2873;DHT22;1444;49.166;7.312;2022-11-23T03:49:33;8.00;99.90
2873;DHT22;1444;49.166;7.312;2022-11-23T03:52:01;8.10;99.90
2873;DHT22;1444;49.166;7.312;2022-11-23T03:54:27;8.10;99.90
2873;DHT22;1444;49.166;7.312;2022-11-23T03:56:54;8.10;99.90
2873;DHT22;1444;49.166;7.312;2022-11-23T03:59:21;8.10;99.90
2873;DHT22;1444;49.166;7.312;2022-11-23T04:01:47;8.10;99.90
2873;DHT22;1444;49.166;7.312;2022-11-23T04:04:14;8.10;99.90
2873;DHT22;1444;49.166;7.312;2022-11-23T04:06:43;8.10;99.90
2873;DHT22;1444;49.166;7.312;2022-11-23T04:09:12;8.10;99.90
2873;DHT22;1444;49.166;7.312;2022-11-23T04:11:38;8.10;99.90
2873;DHT22;1444;49.166;7.312;2022-11-23T04:14:05;8.00;99.90
2873;DHT22;1444;49.166;7.312;2022-11-23T04:16:32;8.10;99.90
2873;DHT22;1444;49.166;7.312;2022-11-23T04:18:59;8.00;99.90
2873;DHT22;1444;49.166;7.312;2022-11-23T04:21:25;8.00;99.90
2873;DHT22;1444;49.166;7.312;2022-11-23T04:23:52;8.10;99.90
2873;DHT22;1444;49.166;7.312;2022-11-23T04:26:20;8.00;99.90
2873;DHT22;1444;49.166;7.312;2022-11-23T04:28:47;8.10;99.90
2873;DHT22;1444;49.166;7.312;2022-11-23T04:31:13;8.10;99.90
2873;DHT22;1444;49.166;7.312;2022-11-23T04:33:40;8.10;99.90
2873;DHT22;1444;49.166;7.312;2022-11-23T04:36:07;9.30;99.90
2873;DHT22;1444;49.166;7.312;2022-11-23T04:38:34;8.10;99.90
2873;DHT22;1444;49.166;7.312;2022-11-23T04:41:01;8.20;99.90
2873;DHT22;1444;49.166;7.312;2022-11-23T04:43:29;8.20;99.90
2873;DHT22;1444;49.166;7.312;2022-11-23T04:45:57;8.20;99.90
2873;DHT22;1444;49.166;7.312;2022-11-23T04:48:23;8.20;99.90
2873;DHT22;1444;49.166;7.312;2022-11-23T04:50:50;8.20;99.90
2873;DHT22;1444;49.166;7.312;2022-11-23T04:53:17;8.20;99.90
2873;DHT22;1444;49.166;7.312;2022-11-23T04:55:45;8.30;99.90
2873;DHT22;1444;49.166;7.312;2022-11-23T04:58:12;8.30;99.90
2873;DHT22;1444;49.166;7.312;2022-11-23T05:00:40;8.20;99.90
2873;DHT22;1444;49.166;7.312;2022-11-23T05:03:06;8.00;99.90
2873;DHT22;1444;49.166;7.312;2022-11-23T05:05:35;8.00;99.90
2873;DHT22;1444;49.166;7.312;2022-11-23T05:08:02;8.00;99.90
2873;DHT22;1444;49.166;7.312;2022-11-23T05:10:29;8.00;99.90
2873;DHT22;1444;49.166;7.312;2022-11-23T05:12:55;7.90;99.90
2873;DHT22;1444;49.166;7.312;2022-11-23T05:15:22;7.90;99.90
2873;DHT22;1444;49.166;7.312;2022-11-23T05:17:50;7.90;99.90
2873;DHT22;1444;49.166;7.312;2022-11-23T05:20:18;7.90;99.90
2873;DHT22;1444;49.166;7.312;2022-11-23T05:22:45;7.90;99.90
2873;DHT22;1444;49.166;7.312;2022-11-23T05:25:11;7.90;99.90
2873;DHT22;1444;49.166;7.312;2022-11-23T05:27:38;7.90;99.90
2873;DHT22;1444;49.166;7.312;2022-11-23T05:30:06;7.90;99.90
2873;DHT22;1444;49.166;7.312;2022-11-23T05:32:33;8.00;99.90
2873;DHT22;1444;49.166;7.312;2022-11-23T05:35:02;7.80;99.90
2873;DHT22;1444;49.166;7.312;2022-11-23T05:37:28;7.70;99.90
2873;DHT22;1444;49.166;7.312;2022-11-23T05:39:55;7.40;99.90
2873;DHT22;1444;49.166;7.312;2022-11-23T05:42:22;7.30;99.90
2873;DHT22;1444;49.166;7.312;2022-11-23T05:44:49;7.20;99.90
2873;DHT22;1444;49.166;7.312;2022-11-23T05:47:16;7.10;99.90
2873;DHT22;1444;49.166;7.312;2022-11-23T05:49:42;7.00;99.90
2873;DHT22;1444;49.166;7.312;2022-11-23T05:52:11;7.00;99.90
2873;DHT22;1444;49.166;7.312;2022-11-23T05:54:37;6.90;99.90
2873;DHT22;1444;49.166;7.312;2022-11-23T05:57:04;6.90;99.90
2873;DHT22;1444;49.166;7.312;2022-11-23T05:59:31;7.00;99.90
2873;DHT22;1444;49.166;7.312;2022-11-23T06:01:58;7.10;99.90
2873;DHT22;1444;49.166;7.312;2022-11-23T06:04:24;7.20;99.90
2873;DHT22;1444;49.166;7.312;2022-11-23T06:06:51;7.20;99.90
2873;DHT22;1444;49.166;7.312;2022-11-23T06:09:20;7.20;99.90
2873;DHT22;1444;49.166;7.312;2022-11-23T06:11:47;7.20;99.90
2873;DHT22;1444;49.166;7.312;2022-11-23T06:14:13;7.20;99.90
2873;DHT22;1444;49.166;7.312;2022-11-23T06:16:40;7.20;99.90
2873;DHT22;1444;49.166;7.312;2022-11-23T06:19:07;7.20;99.90
2873;DHT22;1444;49.166;7.312;2022-11-23T06:21:33;7.20;99.90
2873;DHT22;1444;49.166;7.312;2022-11-23T06:24:00;7.20;99.90
2873;DHT22;1444;49.166;7.312;2022-11-23T06:26:28;7.20;99.90
2873;DHT22;1444;49.166;7.312;2022-11-23T06:28:56;7.20;99.90
2873;DHT22;1444;49.166;7.312;2022-11-23T06:31:23;7.10;99.90
2873;DHT22;1444;49.166;7.312;2022-11-23T06:33:51;7.00;99.90
2873;DHT22;1444;49.166;7.312;2022-11-23T06:38:45;6.60;99.90
2873;DHT22;1444;49.166;7.312;2022-11-23T06:41:11;6.60;99.90
2873;DHT22;1444;49.166;7.312;2022-11-23T06:43:39;6.70;99.90
2873;DHT22;1444;49.166;7.312;2022-11-23T06:46:06;6.60;99.90
2873;DHT22;1444;49.166;7.312;2022-11-23T06:48:33;6.60;99.90
2873;DHT22;1444;49.166;7.312;2022-11-23T06:53:27;6.60;99.90
2873;DHT22;1444;49.166;7.312;2022-11-23T06:55:57;6.50;99.90
2873;DHT22;1444;49.166;7.312;2022-11-23T06:58:24;6.50;99.90
2873;DHT22;1444;49.166;7.312;2022-11-23T07:00:52;6.50;99.90
2873;DHT22;1444;49.166;7.312;2022-11-23T07:03:20;6.50;99.90
2873;DHT22;1444;49.166;7.312;2022-11-23T07:05:48;6.50;99.90
2873;DHT22;1444;49.166;7.312;2022-11-23T07:08:14;5.50;99.90
2873;DHT22;1444;49.166;7.312;2022-11-23T07:10:41;6.50;99.90
2873;DHT22;1444;49.166;7.312;2022-11-23T07:13:09;6.60;99.90
2873;DHT22;1444;49.166;7.312;2022-11-23T07:15:36;6.50;99.90
2873;DHT22;1444;49.166;7.312;2022-11-23T07:18:04;6.60;99.90
2873;DHT22;1444;49.166;7.312;2022-11-23T07:20:32;6.60;99.90
2873;DHT22;1444;49.166;7.312;2022-11-23T07:22:59;6.60;99.90
2873;DHT22;1444;49.166;7.312;2022-11-23T07:25:27;6.60;99.90
2873;DHT22;1444;49.166;7.312;2022-11-23T07:27:55;6.50;99.90
2873;DHT22;1444;49.166;7.312;2022-11-23T07:30:22;6.40;99.90
2873;DHT22;1444;49.166;7.312;2022-11-23T07:32:49;6.30;99.90
2873;DHT22;1444;49.166;7.312;2022-11-23T07:35:17;6.20;99.90
2873;DHT22;1444;49.166;7.312;2022-11-23T07:37:44;6.30;99.90
2873;DHT22;1444;49.166;7.312;2022-11-23T07:40:11;6.40;99.90
2873;DHT22;1444;49.166;7.312;2022-11-23T07:42:37;6.40;99.90
2873;DHT22;1444;49.166;7.312;2022-11-23T07:45:05;6.30;99.90
2873;DHT22;1444;49.166;7.312;2022-11-23T07:47:32;6.30;99.90
2873;DHT22;1444;49.166;7.312;2022-11-23T07:49:59;5.40;99.90
2873;DHT22;1444;49.166;7.312;2022-11-23T07:52:28;6.30;99.90
2873;DHT22;1444;49.166;7.312;2022-11-23T07:54:55;6.20;99.90
2873;DHT22;1444;49.166;7.312;2022-11-23T07:57:22;7.10;99.90
2873;DHT22;1444;49.166;7.312;2022-11-23T07:59:48;8.30;99.90
2873;DHT22;1444;49.166;7.312;2022-11-23T08:02:15;9.00;99.90
2873;DHT22;1444;49.166;7.312;2022-11-23T08:04:42;10.10;99.90
2873;DHT22;1444;49.166;7.312;2022-11-23T08:07:08;10.80;99.60
2873;DHT22;1444;49.166;7.312;2022-11-23T08:09:37;11.50;99.50
2873;DHT22;1444;49.166;7.312;2022-11-23T08:12:05;12.80;97.40
2873;DHT22;1444;49.166;7.312;2022-11-23T08:14:31;13.50;96.40
2873;DHT22;1444;49.166;7.312;2022-11-23T08:16:58;14.30;95.60
2873;DHT22;1444;49.166;7.312;2022-11-23T08:19:25;15.50;94.10
2873;DHT22;1444;49.166;7.312;2022-11-23T08:21:52;16.20;93.40
2873;DHT22;1444;49.166;7.312;2022-11-23T08:24:18;16.70;92.60
2873;DHT22;1444;49.166;7.312;2022-11-23T08:26:47;17.10;91.20
2873;DHT22;1444;49.166;7.312;2022-11-23T08:29:14;17.40;90.70
2873;DHT22;1444;49.166;7.312;2022-11-23T08:31:40;17.60;90.10
2873;DHT22;1444;49.166;7.312;2022-11-23T08:34:08;18.00;89.60
2873;DHT22;1444;49.166;7.312;2022-11-23T08:36:36;18.20;89.10
2873;DHT22;1444;49.166;7.312;2022-11-23T08:39:03;18.30;86.40
2873;DHT22;1444;49.166;7.312;2022-11-23T08:41:30;18.00;86.10
2873;DHT22;1444;49.166;7.312;2022-11-23T08:43:58;18.10;89.10
2873;DHT22;1444;49.166;7.312;2022-11-23T08:46:24;18.20;88.80
2873;DHT22;1444;49.166;7.312;2022-11-23T08:48:51;18.40;88.70
2873;DHT22;1444;49.166;7.312;2022-11-23T08:51:18;18.50;87.50
2873;DHT22;1444;49.166;7.312;2022-11-23T08:53:47;18.40;86.60
2873;DHT22;1444;49.166;7.312;2022-11-23T08:56:14;18.10;86.50
2873;DHT22;1444;49.166;7.312;2022-11-23T08:58:41;17.90;87.30
2873;DHT22;1444;49.166;7.312;2022-11-23T09:01:10;17.80;89.50
2873;DHT22;1444;49.166;7.312;2022-11-23T09:03:37;17.50;89.50
2873;DHT22;1444;49.166;7.312;2022-11-23T09:06:04;17.30;89.50
2873;DHT22;1444;49.166;7.312;2022-11-23T09:08:32;16.90;88.80
2873;DHT22;1444;49.166;7.312;2022-11-23T09:10:59;16.40;89.20
2873;DHT22;1444;49.166;7.312;2022-11-23T09:13:26;16.10;90.30
2873;DHT22;1444;49.166;7.312;2022-11-23T09:15:56;15.80;90.60
2873;DHT22;1444;49.166;7.312;2022-11-23T09:18:24;15.60;91.10
2873;DHT22;1444;49.166;7.312;2022-11-23T09:20:51;15.20;91.00
2873;DHT22;1444;49.166;7.312;2022-11-23T09:23:18;14.90;91.70
2873;DHT22;1444;49.166;7.312;2022-11-23T09:25:45;14.90;92.60
2873;DHT22;1444;49.166;7.312;2022-11-23T09:28:14;14.90;91.90
2873;DHT22;1444;49.166;7.312;2022-11-23T09:30:41;14.60;92.10
2873;DHT22;1444;49.166;7.312;2022-11-23T09:33:08;14.50;92.70
2873;DHT22;1444;49.166;7.312;2022-11-23T09:35:36;14.30;92.90
2873;DHT22;1444;49.166;7.312;2022-11-23T09:38:03;14.40;93.70
2873;DHT22;1444;49.166;7.312;2022-11-23T09:40:32;14.20;92.60
2873;DHT22;1444;49.166;7.312;2022-11-23T09:43:27;14.10;93.80
2873;DHT22;1444;49.166;7.312;2022-11-23T09:46:02;14.20;93.30
2873;DHT22;1444;49.166;7.312;2022-11-23T09:49:11;14.10;93.00
2873;DHT22;1444;49.166;7.312;2022-11-23T09:51:40;14.00;92.20
2873;DHT22;1444;49.166;7.312;2022-11-23T09:54:21;13.50;90.30
2873;DHT22;1444;49.166;7.312;2022-11-23T09:56:50;13.40;92.20
2873;DHT22;1444;49.166;7.312;2022-11-23T09:59:25;13.30;93.20
2873;DHT22;1444;49.166;7.312;2022-11-23T10:01:57;13.10;93.00
2873;DHT22;1444;49.166;7.312;2022-11-23T10:04:28;12.70;91.20
2873;DHT22;1444;49.166;7.312;2022-11-23T10:07:02;12.40;91.60
2873;DHT22;1444;49.166;7.312;2022-11-23T10:09:40;12.10;91.90
2873;DHT22;1444;49.166;7.312;2022-11-23T10:12:21;12.00;91.70
2873;DHT22;1444;49.166;7.312;2022-11-23T10:14:56;11.70;91.80
2873;DHT22;1444;49.166;7.312;2022-11-23T10:17:36;11.60;91.40
2873;DHT22;1444;49.166;7.312;2022-11-23T10:20:19;11.40;91.50
2873;DHT22;1444;49.166;7.312;2022-11-23T10:22:54;11.50;92.00
2873;DHT22;1444;49.166;7.312;2022-11-23T10:25:24;11.50;92.20
2873;DHT22;1444;49.166;7.312;2022-11-23T10:27:55;11.60;91.60
2873;DHT22;1444;49.166;7.312;2022-11-23T10:30:24;11.60;91.60
2873;DHT22;1444;49.166;7.312;2022-11-23T10:32:55;10.40;91.90
2873;DHT22;1444;49.166;7.312;2022-11-23T10:35:27;11.50;91.30
2873;DHT22;1444;49.166;7.312;2022-11-23T10:38:09;11.50;91.20
2873;DHT22;1444;49.166;7.312;2022-11-23T10:40:38;11.60;91.70
2873;DHT22;1444;49.166;7.312;2022-11-23T10:43:10;11.70;90.90
2873;DHT22;1444;49.166;7.312;2022-11-23T10:45:38;11.70;92.20
2873;DHT22;1444;49.166;7.312;2022-11-23T10:48:04;11.60;91.30
2873;DHT22;1444;49.166;7.312;2022-11-23T10:50:34;11.70;91.00
2873;DHT22;1444;49.166;7.312;2022-11-23T10:53:18;11.70;91.20
2873;DHT22;1444;49.166;7.312;2022-11-23T10:55:48;11.60;91.70
2873;DHT22;1444;49.166;7.312;2022-11-23T10:58:25;11.70;91.50
2873;DHT22;1444;49.166;7.312;2022-11-23T11:00:58;11.50;91.00
2873;DHT22;1444;49.166;7.312;2022-11-23T11:03:30;11.60;91.60
2873;DHT22;1444;49.166;7.312;2022-11-23T11:05:57;11.60;91.90
2873;DHT22;1444;49.166;7.312;2022-11-23T11:08:29;11.70;91.80
2873;DHT22;1444;49.166;7.312;2022-11-23T11:10:58;11.70;91.50
2873;DHT22;1444;49.166;7.312;2022-11-23T11:13:28;11.90;92.30
2873;DHT22;1444;49.166;7.312;2022-11-23T11:15:58;11.80;91.60
2873;DHT22;1444;49.166;7.312;2022-11-23T11:18:27;11.80;92.70
2873;DHT22;1444;49.166;7.312;2022-11-23T11:20:57;11.90;92.70
2873;DHT22;1444;49.166;7.312;2022-11-23T11:23:25;11.90;91.70
2873;DHT22;1444;49.166;7.312;2022-11-23T11:26:03;12.00;92.20
2873;DHT22;1444;49.166;7.312;2022-11-23T11:28:35;11.90;91.40
2873;DHT22;1444;49.166;7.312;2022-11-23T11:31:18;12.00;92.50
2873;DHT22;1444;49.166;7.312;2022-11-23T11:33:54;11.90;91.70
2873;DHT22;1444;49.166;7.312;2022-11-23T11:36:24;12.00;92.30
2873;DHT22;1444;49.166;7.312;2022-11-23T11:38:54;11.90;92.00
2873;DHT22;1444;49.166;7.312;2022-11-23T11:41:26;12.00;91.80
2873;DHT22;1444;49.166;7.312;2022-11-23T11:43:58;12.00;92.00
2873;DHT22;1444;49.166;7.312;2022-11-23T11:46:32;12.00;91.50
2873;DHT22;1444;49.166;7.312;2022-11-23T11:49:05;11.90;91.70
2873;DHT22;1444;49.166;7.312;2022-11-23T11:51:35;11.90;91.30
2873;DHT22;1444;49.166;7.312;2022-11-23T11:54:12;12.00;91.40
2873;DHT22;1444;49.166;7.312;2022-11-23T11:56:43;12.10;91.10
2873;DHT22;1444;49.166;7.312;2022-11-23T11:59:13;12.10;91.30
2873;DHT22;1444;49.166;7.312;2022-11-23T12:01:47;12.00;90.90
2873;DHT22;1444;49.166;7.312;2022-11-23T12:04:21;12.00;90.50
2873;DHT22;1444;49.166;7.312;2022-11-23T12:06:53;12.00;91.10
2873;DHT22;1444;49.166;7.312;2022-11-23T12:09:30;11.90;91.10
2873;DHT22;1444;49.166;7.312;2022-11-23T12:11:58;12.10;91.60
2873;DHT22;1444;49.166;7.312;2022-11-23T12:14:25;12.00;90.80
2873;DHT22;1444;49.166;7.312;2022-11-23T12:16:57;11.90;90.70
2873;DHT22;1444;49.166;7.312;2022-11-23T12:19:29;12.00;90.80
2873;DHT22;1444;49.166;7.312;2022-11-23T12:22:27;12.20;91.50
2873;DHT22;1444;49.166;7.312;2022-11-23T12:25:08;12.40;90.60
2873;DHT22;1444;49.166;7.312;2022-11-23T12:27:42;12.30;90.10
2873;DHT22;1444;49.166;7.312;2022-11-23T12:30:20;12.30;90.00
2873;DHT22;1444;49.166;7.312;2022-11-23T12:32:59;12.40;90.40
2873;DHT22;1444;49.166;7.312;2022-11-23T12:38:29;12.30;90.10
2873;DHT22;1444;49.166;7.312;2022-11-23T12:41:19;12.30;90.40
2873;DHT22;1444;49.166;7.312;2022-11-23T12:43:56;12.20;89.20
2873;DHT22;1444;49.166;7.312;2022-11-23T12:46:29;12.20;90.00
2873;DHT22;1444;49.166;7.312;2022-11-23T12:49:13;12.00;90.40
2873;DHT22;1444;49.166;7.312;2022-11-23T12:51:50;12.30;90.50
2873;DHT22;1444;49.166;7.312;2022-11-23T12:54:33;12.30;90.30
2873;DHT22;1444;49.166;7.312;2022-11-23T12:57:09;12.20;90.50
2873;DHT22;1444;49.166;7.312;2022-11-23T12:59:43;12.40;91.70
2873;DHT22;1444;49.166;7.312;2022-11-23T13:02:38;12.40;90.90
2873;DHT22;1444;49.166;7.312;2022-11-23T13:11:23;11.60;91.30
2873;DHT22;1444;49.166;7.312;2022-11-23T13:14:05;11.50;91.20
2873;DHT22;1444;49.166;7.312;2022-11-23T13:16:54;11.40;91.40
2873;DHT22;1444;49.166;7.312;2022-11-23T13:19:40;11.20;91.80
2873;DHT22;1444;49.166;7.312;2022-11-23T13:22:11;11.20;92.50
2873;DHT22;1444;49.166;7.312;2022-11-23T13:24:59;11.30;91.90
2873;DHT22;1444;49.166;7.312;2022-11-23T13:27:43;11.20;91.80
2873;DHT22;1444;49.166;7.312;2022-11-23T13:30:29;13.10;93.30
2873;DHT22;1444;49.166;7.312;2022-11-23T13:32:59;11.50;92.10
2873;DHT22;1444;49.166;7.312;2022-11-23T13:35:49;11.60;92.20
2873;DHT22;1444;49.166;7.312;2022-11-23T13:44:23;11.60;91.90
2873;DHT22;1444;49.166;7.312;2022-11-23T13:47:02;11.30;91.90
2873;DHT22;1444;49.166;7.312;2022-11-23T13:49:33;11.10;92.50
2873;DHT22;1444;49.166;7.312;2022-11-23T13:54:53;11.00;92.40
2873;DHT22;1444;49.166;7.312;2022-11-23T13:57:21;10.90;92.20
2873;DHT22;1444;49.166;7.312;2022-11-23T13:59:48;12.70;93.20
2873;DHT22;1444;49.166;7.312;2022-11-23T14:02:34;10.60;92.40
2873;DHT22;1444;49.166;7.312;2022-11-23T14:08:17;10.80;93.30
2873;DHT22;1444;49.166;7.312;2022-11-23T14:10:45;10.70;93.00
2873;DHT22;1444;49.166;7.312;2022-11-23T14:13:17;10.50;93.00
2873;DHT22;1444;49.166;7.312;2022-11-23T14:15:51;10.60;93.40
2873;DHT22;1444;49.166;7.312;2022-11-23T14:18:41;10.70;93.80
2873;DHT22;1444;49.166;7.312;2022-11-23T14:21:13;10.60;93.40
2873;DHT22;1444;49.166;7.312;2022-11-23T14:26:56;10.30;94.10
2873;DHT22;1444;49.166;7.312;2022-11-23T14:29:30;10.30;94.10
2873;DHT22;1444;49.166;7.312;2022-11-23T14:32:16;10.30;94.10
2873;DHT22;1444;49.166;7.312;2022-11-23T14:34:54;10.30;94.40
2873;DHT22;1444;49.166;7.312;2022-11-23T14:37:34;10.30;94.40
2873;DHT22;1444;49.166;7.312;2022-11-23T14:40:13;10.30;94.50
2873;DHT22;1444;49.166;7.312;2022-11-23T14:42:45;10.30;94.90
2873;DHT22;1444;49.166;7.312;2022-11-23T14:45:18;10.30;94.70
2873;DHT22;1444;49.166;7.312;2022-11-23T14:47:45;8.70;94.80
2873;DHT22;1444;49.166;7.312;2022-11-23T14:50:23;10.30;94.70
2873;DHT22;1444;49.166;7.312;2022-11-23T14:52:50;10.20;94.70
2873;DHT22;1444;49.166;7.312;2022-11-23T14:55:20;10.30;95.20
2873;DHT22;1444;49.166;7.312;2022-11-23T14:57:48;10.20;95.30
2873;DHT22;1444;49.166;7.312;2022-11-23T15:00:27;10.20;95.40
2873;DHT22;1444;49.166;7.312;2022-11-23T15:02:56;10.10;95.40
2873;DHT22;1444;49.166;7.312;2022-11-23T15:05:27;10.10;95.40
2873;DHT22;1444;49.166;7.312;2022-11-23T15:07:59;10.00;95.50
2873;DHT22;1444;49.166;7.312;2022-11-23T15:10:38;10.10;95.80
2873;DHT22;1444;49.166;7.312;2022-11-23T15:13:17;10.10;96.30
2873;DHT22;1444;49.166;7.312;2022-11-23T15:15:45;10.10;97.10
2873;DHT22;1444;49.166;7.312;2022-11-23T15:18:25;9.90;98.20
2873;DHT22;1444;49.166;7.312;2022-11-23T15:20:54;9.80;98.30
2873;DHT22;1444;49.166;7.312;2022-11-23T15:23:23;11.60;99.00
2873;DHT22;1444;49.166;7.312;2022-11-23T15:25:52;9.50;98.80
2873;DHT22;1444;49.166;7.312;2022-11-23T15:28:24;11.40;99.70
2873;DHT22;1444;49.166;7.312;2022-11-23T15:30:51;9.40;99.90
2873;DHT22;1444;49.166;7.312;2022-11-23T15:33:19;9.40;99.90
2873;DHT22;1444;49.166;7.312;2022-11-23T15:35:47;9.30;99.90
2873;DHT22;1444;49.166;7.312;2022-11-23T15:38:16;9.40;99.90
2873;DHT22;1444;49.166;7.312;2022-11-23T15:40:45;9.40;99.90
2873;DHT22;1444;49.166;7.312;2022-11-23T15:43:13;9.50;99.90
2873;DHT22;1444;49.166;7.312;2022-11-23T15:46:03;9.40;99.90
2873;DHT22;1444;49.166;7.312;2022-11-23T15:48:32;9.40;99.90
2873;DHT22;1444;49.166;7.312;2022-11-23T15:51:02;9.40;99.90
2873;DHT22;1444;49.166;7.312;2022-11-23T15:53:32;9.40;99.90
2873;DHT22;1444;49.166;7.312;2022-11-23T15:56:01;9.30;99.90
2873;DHT22;1444;49.166;7.312;2022-11-23T15:58:29;9.40;99.90
2873;DHT22;1444;49.166;7.312;2022-11-23T16:01:04;9.40;99.90
2873;DHT22;1444;49.166;7.312;2022-11-23T16:03:34;9.40;99.90
2873;DHT22;1444;49.166;7.312;2022-11-23T16:06:18;9.40;99.90
2873;DHT22;1444;49.166;7.312;2022-11-23T16:08:50;9.30;99.90
2873;DHT22;1444;49.166;7.312;2022-11-23T16:11:31;9.30;99.90
2873;DHT22;1444;49.166;7.312;2022-11-23T16:14:16;9.30;99.90
2873;DHT22;1444;49.166;7.312;2022-11-23T16:16:45;9.20;99.90
2873;DHT22;1444;49.166;7.312;2022-11-23T16:19:20;9.20;99.90
2873;DHT22;1444;49.166;7.312;2022-11-23T16:21:49;9.20;99.90
2873;DHT22;1444;49.166;7.312;2022-11-23T16:24:19;9.10;99.90
2873;DHT22;1444;49.166;7.312;2022-11-23T16:26:47;9.00;99.90
2873;DHT22;1444;49.166;7.312;2022-11-23T16:29:20;9.00;99.90
2873;DHT22;1444;49.166;7.312;2022-11-23T16:31:53;9.10;99.90
2873;DHT22;1444;49.166;7.312;2022-11-23T16:34:21;9.10;99.90
2873;DHT22;1444;49.166;7.312;2022-11-23T16:36:48;9.20;99.90
2873;DHT22;1444;49.166;7.312;2022-11-23T16:39:14;9.10;99.90
2873;DHT22;1444;49.166;7.312;2022-11-23T16:41:42;9.00;99.90
2873;DHT22;1444;49.166;7.312;2022-11-23T16:44:09;8.90;99.90
2873;DHT22;1444;49.166;7.312;2022-11-23T16:46:36;9.10;99.90
2873;DHT22;1444;49.166;7.312;2022-11-23T16:49:04;9.10;99.90
2873;DHT22;1444;49.166;7.312;2022-11-23T16:51:31;9.20;99.90
2873;DHT22;1444;49.166;7.312;2022-11-23T16:53:58;9.30;99.90
2873;DHT22;1444;49.166;7.312;2022-11-23T16:56:25;9.40;99.90
2873;DHT22;1444;49.166;7.312;2022-11-23T16:58:54;9.40;99.90
2873;DHT22;1444;49.166;7.312;2022-11-23T17:01:22;9.40;99.90